createdAt,value
2019-06-27T00:01:00.312Z,9.40
2019-06-27T00:03:29.737Z,9.13
2019-06-27T00:05:59.129Z,8.20
2019-06-27T00:08:28.540Z,9.30
2019-06-27T00:10:57.950Z,8.37
2019-06-27T00:13:27.417Z,9.63
2019-06-27T00:15:56.857Z,8.10
2019-06-27T00:18:26.271Z,8.20
2019-06-27T00:20:58.099Z,8.20
2019-06-27T00:23:27.507Z,8.03
2019-06-27T00:25:56.883Z,8.23
2019-06-27T00:28:26.311Z,7.60
2019-06-27T00:30:55.731Z,7.70
2019-06-27T00:33:25.114Z,4.87
2019-06-27T00:35:54.557Z,3.97
2019-06-27T00:38:23.971Z,4.53
2019-06-27T00:40:53.444Z,3.60
2019-06-27T00:43:22.881Z,3.47
2019-06-27T00:45:52.325Z,2.67
2019-06-27T00:48:21.709Z,3.57
2019-06-27T00:50:51.183Z,6.93
2019-06-27T00:53:20.599Z,2.70
2019-06-27T00:55:50.028Z,3.20
2019-06-27T00:58:19.388Z,4.23
2019-06-27T01:00:48.861Z,3.70
2019-06-27T01:03:18.313Z,3.20
2019-06-27T01:05:47.691Z,2.73
2019-06-27T01:08:17.149Z,5.00
2019-06-27T01:10:46.557Z,2.20
2019-06-27T01:13:15.983Z,2.57
2019-06-27T01:15:45.475Z,2.47
2019-06-27T01:18:14.852Z,3.37
2019-06-27T01:20:44.226Z,2.37
2019-06-27T01:23:13.599Z,2.47
2019-06-27T01:25:43.117Z,2.30
2019-06-27T01:28:13.448Z,1.97
2019-06-27T01:30:42.846Z,2.10
2019-06-27T01:33:12.198Z,2.30
2019-06-27T01:35:41.757Z,1.60
2019-06-27T01:38:11.467Z,2.30
2019-06-27T01:40:40.941Z,1.87
2019-06-27T01:43:10.267Z,2.10
2019-06-27T01:45:44.912Z,2.30
2019-06-27T01:48:14.263Z,2.00
2019-06-27T01:50:43.836Z,2.10
2019-06-27T01:53:13.262Z,2.00
2019-06-27T01:55:42.746Z,5.63
2019-06-27T01:58:12.184Z,1.87
2019-06-27T02:00:41.560Z,1.70
2019-06-27T02:03:11.196Z,2.03
2019-06-27T02:05:40.613Z,1.97
2019-06-27T02:08:09.992Z,2.07
2019-06-27T02:10:39.785Z,1.87
2019-06-27T02:13:09.420Z,2.17
2019-06-27T02:15:39.083Z,2.13
2019-06-27T02:18:08.555Z,2.00
2019-06-27T02:20:37.988Z,1.90
2019-06-27T02:23:07.460Z,1.80
2019-06-27T02:25:36.922Z,2.07
2019-06-27T02:28:06.428Z,1.80
2019-06-27T02:30:45.099Z,2.30
2019-06-27T02:33:14.498Z,2.53
2019-06-27T02:35:43.933Z,1.80
2019-06-27T02:38:13.325Z,4.73
2019-06-27T02:40:42.684Z,2.03
2019-06-27T02:43:12.049Z,1.97
2019-06-27T02:45:41.406Z,2.13
2019-06-27T02:48:10.832Z,1.90
2019-06-27T02:50:40.314Z,2.10
2019-06-27T02:53:09.742Z,2.10
2019-06-27T02:55:39.250Z,2.20
2019-06-27T02:58:28.418Z,2.00
2019-06-27T03:00:39.672Z,3.00
2019-06-27T03:03:09.031Z,2.60
2019-06-27T03:05:38.461Z,2.43
2019-06-27T03:08:07.805Z,2.50
2019-06-27T03:10:37.305Z,6.20
2019-06-27T03:13:06.760Z,2.63
2019-06-27T03:15:36.295Z,3.70
2019-06-27T03:18:05.847Z,2.30
2019-06-27T03:20:38.085Z,3.37
2019-06-27T03:23:07.588Z,2.10
2019-06-27T03:25:37.283Z,2.17
2019-06-27T03:28:06.863Z,2.60
2019-06-27T03:30:37.573Z,3.40
2019-06-27T03:33:06.972Z,2.60
2019-06-27T03:35:36.501Z,2.97
2019-06-27T03:38:06.031Z,3.07
2019-06-27T03:40:36.091Z,2.40
2019-06-27T03:43:05.733Z,2.77
2019-06-27T03:45:35.421Z,2.50
2019-06-27T03:48:04.842Z,2.90
2019-06-27T03:50:34.268Z,3.83
2019-06-27T03:53:03.667Z,3.83
2019-06-27T03:55:32.991Z,3.03
2019-06-27T03:58:02.333Z,5.03
2019-06-27T04:00:33.592Z,4.33
2019-06-27T04:03:02.973Z,5.00
2019-06-27T04:05:32.366Z,4.27
2019-06-27T04:08:01.898Z,4.00
2019-06-27T04:10:31.270Z,4.30
2019-06-27T04:13:00.691Z,4.50
2019-06-27T04:15:30.090Z,3.80
2019-06-27T04:17:59.510Z,7.27
2019-06-27T04:20:28.909Z,4.10
2019-06-27T04:22:58.342Z,5.57
2019-06-27T04:25:27.655Z,4.73
2019-06-27T04:28:04.791Z,6.80
2019-06-27T04:30:36.677Z,7.20
2019-06-27T04:35:57.908Z,5.17
2019-06-27T04:38:47.057Z,5.07
2019-06-27T04:41:44.091Z,5.80
2019-06-27T04:44:20.803Z,6.40
2019-06-27T04:56:07.677Z,6.03
2019-06-27T04:58:42.552Z,4.37
2019-06-27T05:01:35.127Z,6.47
2019-06-27T05:04:15.453Z,9.47
2019-06-27T05:07:06.721Z,7.87
2019-06-27T05:09:34.898Z,5.43
2019-06-27T05:15:18.753Z,6.47
2019-06-27T05:18:04.811Z,6.37
2019-06-27T05:20:52.297Z,6.70
2019-06-27T05:23:40.631Z,5.97
2019-06-27T05:26:11.957Z,5.80
2019-06-27T05:28:45.520Z,8.50
2019-06-27T05:31:22.643Z,8.40
2019-06-27T05:33:52.329Z,8.93
2019-06-27T05:36:22.223Z,7.13
2019-06-27T05:38:51.953Z,7.43
2019-06-27T05:41:21.644Z,6.80
2019-06-27T05:43:51.195Z,9.23
2019-06-27T05:46:20.596Z,12.60
2019-06-27T05:48:49.958Z,7.23
2019-06-27T05:51:19.368Z,10.10
2019-06-27T05:53:54.086Z,10.53
2019-06-27T05:56:27.670Z,10.50
2019-06-27T05:58:57.049Z,10.17
2019-06-27T06:02:11.895Z,12.90
2019-06-27T06:04:41.308Z,9.13
2019-06-27T06:07:10.799Z,10.60
2019-06-27T06:09:44.750Z,8.87
2019-06-27T06:12:14.190Z,7.53
2019-06-27T06:14:43.564Z,12.33
2019-06-27T06:17:12.992Z,8.13
2019-06-27T06:19:43.488Z,10.20
2019-06-27T06:22:12.839Z,8.20
2019-06-27T06:24:42.292Z,11.80
2019-06-27T06:27:11.658Z,10.80
2019-06-27T06:29:40.998Z,8.10
2019-06-27T06:32:10.357Z,10.47
2019-06-27T06:34:39.610Z,9.13
2019-06-27T06:37:09.049Z,13.20
2019-06-27T06:39:38.417Z,10.47
2019-06-27T06:42:07.789Z,9.00
2019-06-27T06:44:37.148Z,12.47
2019-06-27T06:47:06.653Z,9.70
2019-06-27T06:49:36.088Z,8.53
2019-06-27T06:52:05.535Z,12.40
2019-06-27T06:54:35.189Z,9.63
2019-06-27T06:57:04.651Z,9.77
2019-06-27T06:59:34.056Z,14.17
2019-06-27T07:02:03.682Z,10.47
2019-06-27T07:04:32.942Z,9.87
2019-06-27T07:07:02.416Z,8.10
2019-06-27T07:09:31.759Z,8.77
2019-06-27T07:12:01.214Z,11.43
2019-06-27T07:14:30.588Z,11.27
2019-06-27T07:16:59.937Z,7.53
2019-06-27T07:19:29.343Z,12.10
2019-06-27T07:21:58.845Z,10.50
2019-06-27T07:24:35.964Z,7.30
2019-06-27T07:27:05.432Z,8.17
2019-06-27T07:29:34.869Z,8.07
2019-06-27T07:32:04.308Z,8.80
2019-06-27T07:34:33.679Z,7.90
2019-06-27T07:37:02.981Z,9.00
2019-06-27T07:39:32.740Z,11.10
2019-06-27T07:42:02.203Z,7.17
2019-06-27T07:44:31.589Z,6.40
2019-06-27T07:47:09.830Z,7.27
2019-06-27T07:49:39.187Z,10.07
2019-06-27T07:52:08.552Z,6.67
2019-06-27T07:55:08.657Z,7.57
2019-06-27T07:57:37.232Z,13.30
2019-06-27T08:00:07.276Z,6.70
2019-06-27T08:02:36.704Z,6.87
2019-06-27T08:05:06.316Z,6.30
2019-06-27T08:07:35.842Z,6.33
2019-06-27T08:10:05.723Z,5.93
2019-06-27T08:12:35.176Z,5.57
2019-06-27T08:15:04.654Z,7.10
2019-06-27T08:17:34.027Z,6.90
2019-06-27T08:20:03.570Z,5.83
2019-06-27T08:22:32.963Z,6.20
2019-06-27T08:25:02.361Z,5.30
2019-06-27T08:27:31.925Z,6.20
2019-06-27T08:30:01.402Z,6.07
2019-06-27T08:32:30.831Z,5.80
2019-06-27T08:35:00.181Z,5.20
2019-06-27T08:37:29.683Z,6.27
2019-06-27T08:40:01.065Z,6.03
2019-06-27T08:42:30.189Z,3.90
2019-06-27T08:44:59.634Z,4.40
2019-06-27T08:47:29.033Z,4.27
2019-06-27T08:49:58.394Z,4.30
2019-06-27T08:52:27.749Z,6.60
2019-06-27T08:54:57.220Z,4.87
2019-06-27T08:57:26.624Z,10.60
2019-06-27T08:59:56.135Z,5.93
2019-06-27T09:02:25.563Z,5.53
2019-06-27T09:04:55.012Z,6.53
2019-06-27T09:07:24.424Z,5.97
2019-06-27T09:09:53.826Z,4.80
2019-06-27T09:12:23.284Z,5.10
2019-06-27T09:14:53.213Z,10.10
2019-06-27T09:17:22.993Z,3.80
2019-06-27T09:19:52.701Z,3.83
2019-06-27T09:22:22.038Z,4.67
2019-06-27T09:24:51.498Z,4.47
2019-06-27T09:27:20.892Z,3.50
2019-06-27T09:29:50.250Z,17.33
2019-06-27T09:32:25.576Z,4.27
2019-06-27T09:34:50.846Z,3.70
2019-06-27T09:37:20.189Z,3.33
2019-06-27T09:39:49.653Z,7.30
2019-06-27T09:42:18.985Z,8.40
2019-06-27T09:44:48.450Z,5.53
2019-06-27T09:47:17.829Z,7.10
2019-06-27T09:49:47.267Z,7.87
2019-06-27T09:52:16.616Z,3.67
2019-06-27T09:54:46.417Z,3.53
2019-06-27T09:57:15.747Z,6.20
2019-06-27T09:59:46.145Z,3.73
2019-06-27T10:02:15.395Z,6.27
2019-06-27T10:04:44.897Z,4.67
2019-06-27T10:07:14.215Z,3.00
2019-06-27T10:09:43.624Z,4.63
2019-06-27T10:12:13.049Z,4.30
2019-06-27T10:14:42.455Z,5.70
2019-06-27T10:17:11.893Z,6.00
2019-06-27T10:19:41.968Z,3.20
2019-06-27T10:22:11.453Z,9.03
2019-06-27T10:24:40.883Z,3.90
2019-06-27T10:27:10.161Z,3.17
2019-06-27T10:29:39.506Z,4.67
2019-06-27T10:32:09.179Z,5.50
2019-06-27T10:34:38.727Z,3.30
2019-06-27T10:37:08.275Z,5.63
2019-06-27T10:39:37.740Z,4.23
2019-06-27T10:42:07.196Z,4.63
2019-06-27T10:44:36.539Z,5.63
2019-06-27T10:47:05.970Z,3.17
2019-06-27T10:49:35.238Z,4.30
2019-06-27T10:52:04.639Z,4.00
2019-06-27T10:54:34.038Z,3.10
2019-06-27T10:57:03.614Z,3.33
2019-06-27T10:59:33.064Z,2.90
2019-06-27T11:02:02.499Z,2.93
2019-06-27T11:04:32.100Z,5.57
2019-06-27T11:07:01.692Z,5.47
2019-06-27T11:09:34.432Z,3.13
2019-06-27T11:12:03.952Z,2.70
2019-06-27T11:14:33.394Z,2.73
2019-06-27T11:17:04.991Z,5.17
2019-06-27T11:19:34.218Z,2.63
2019-06-27T11:22:03.895Z,2.90
2019-06-27T11:24:33.229Z,3.37
2019-06-27T11:27:02.884Z,4.27
2019-06-27T11:29:32.297Z,5.83
2019-06-27T11:32:01.881Z,5.33
2019-06-27T11:34:34.854Z,4.00
2019-06-27T11:37:02.356Z,3.53
2019-06-27T11:39:31.815Z,4.77
2019-06-27T11:42:01.234Z,3.17
2019-06-27T11:44:30.627Z,5.30
2019-06-27T11:46:59.945Z,3.90
2019-06-27T11:49:29.378Z,3.07
2019-06-27T11:51:58.773Z,3.93
2019-06-27T11:54:28.244Z,4.13
2019-06-27T11:56:57.855Z,5.67
2019-06-27T11:59:27.389Z,6.20
2019-06-27T12:01:56.828Z,6.10
2019-06-27T12:04:26.386Z,4.93
2019-06-27T12:06:56.760Z,5.80
2019-06-27T12:09:26.232Z,5.40
2019-06-27T12:12:25.408Z,5.70
2019-06-27T12:14:55.158Z,6.90
2019-06-27T12:17:24.487Z,4.77
2019-06-27T12:19:53.987Z,4.53
2019-06-27T12:22:23.394Z,4.40
2019-06-27T12:24:53.107Z,4.63
2019-06-27T12:27:22.736Z,4.00
2019-06-27T12:29:52.152Z,6.53
2019-06-27T12:32:21.472Z,5.30
2019-06-27T12:34:51.088Z,5.40
2019-06-27T12:37:20.540Z,6.03
2019-06-27T12:39:50.045Z,4.10
2019-06-27T12:42:32.087Z,6.00
2019-06-27T12:44:50.493Z,5.90
2019-06-27T12:47:20.062Z,3.30
2019-06-27T12:50:01.166Z,2.70
2019-06-27T12:52:20.573Z,2.47
2019-06-27T12:54:49.959Z,2.73
2019-06-27T12:57:19.353Z,4.10
2019-06-27T12:59:48.698Z,2.80
2019-06-27T13:02:18.123Z,6.00
2019-06-27T13:04:47.605Z,6.17
2019-06-27T13:07:16.930Z,2.60
2019-06-27T13:09:46.451Z,4.87
2019-06-27T13:12:15.842Z,5.90
2019-06-27T13:14:45.475Z,4.83
2019-06-27T13:17:14.840Z,4.80
2019-06-27T13:19:44.264Z,1.93
2019-06-27T13:22:13.720Z,2.60
2019-06-27T13:24:43.184Z,2.40
2019-06-27T13:27:12.631Z,1.83
2019-06-27T13:29:42.048Z,3.87
2019-06-27T13:32:11.545Z,2.40
2019-06-27T13:34:41.303Z,2.17
2019-06-27T13:37:10.843Z,2.00
2019-06-27T13:39:40.225Z,6.27
2019-06-27T13:42:09.703Z,3.43
2019-06-27T13:44:39.156Z,6.17
2019-06-27T13:47:08.575Z,10.57
2019-06-27T13:49:37.979Z,1.90
2019-06-27T13:52:07.536Z,2.40
2019-06-27T13:54:37.003Z,1.73
2019-06-27T13:57:08.498Z,2.80
2019-06-27T13:59:37.929Z,2.00
2019-06-27T14:02:07.375Z,2.80
2019-06-27T14:04:36.925Z,1.90
2019-06-27T14:07:06.400Z,9.93
2019-06-27T14:09:51.051Z,6.23
2019-06-27T14:12:08.070Z,2.50
2019-06-27T14:14:37.438Z,3.70
2019-06-27T14:17:06.932Z,3.00
2019-06-27T14:19:36.402Z,3.10
2019-06-27T14:22:05.778Z,4.10
2019-06-27T14:24:35.195Z,3.27
2019-06-27T14:27:04.900Z,4.83
2019-06-27T14:29:34.453Z,5.30
2019-06-27T14:32:03.918Z,1.80
2019-06-27T14:34:33.423Z,2.90
2019-06-27T14:37:02.933Z,2.67
2019-06-27T14:39:32.438Z,1.93
2019-06-27T14:42:01.931Z,2.57
2019-06-27T14:44:31.400Z,2.00
2019-06-27T14:47:00.949Z,2.67
2019-06-27T14:49:30.310Z,2.20
2019-06-27T14:51:59.762Z,3.77
2019-06-27T14:54:29.183Z,4.57
2019-06-27T14:56:58.684Z,2.90
2019-06-27T14:59:28.070Z,4.53
2019-06-27T15:01:58.096Z,3.53
2019-06-27T15:04:27.440Z,1.70
2019-06-27T15:06:56.942Z,1.80
2019-06-27T15:09:26.565Z,2.93
2019-06-27T15:11:56.076Z,1.83
2019-06-27T15:14:25.565Z,2.80
2019-06-27T15:16:55.050Z,2.80
2019-06-27T15:19:24.504Z,4.87
2019-06-27T15:21:53.989Z,3.03
2019-06-27T15:24:23.584Z,1.90
2019-06-27T15:26:53.205Z,4.80
2019-06-27T15:29:22.671Z,2.87
2019-06-27T15:31:52.138Z,2.90
2019-06-27T15:34:21.517Z,4.17
2019-06-27T15:36:50.851Z,5.07
2019-06-27T15:39:20.321Z,1.90
2019-06-27T15:41:49.731Z,3.77
2019-06-27T15:44:20.768Z,5.63
2019-06-27T15:46:53.910Z,2.60
2019-06-27T15:49:21.524Z,2.33
2019-06-27T15:51:51.057Z,2.90
2019-06-27T15:54:20.514Z,3.37
2019-06-27T15:56:50.177Z,3.20
2019-06-27T15:59:19.690Z,2.73
2019-06-27T16:01:49.209Z,2.33
2019-06-27T16:04:30.463Z,2.00
2019-06-27T16:06:51.890Z,3.60
2019-06-27T16:09:26.421Z,3.87
2019-06-27T16:11:56.031Z,4.57
2019-06-27T16:14:26.663Z,4.10
2019-06-27T16:16:56.320Z,3.10
2019-06-27T16:19:25.822Z,2.30
2019-06-27T16:21:55.282Z,2.53
2019-06-27T16:24:24.786Z,6.37
2019-06-27T16:26:56.366Z,4.17
2019-06-27T16:29:27.050Z,3.97
2019-06-27T16:31:56.663Z,3.73
2019-06-27T16:34:28.861Z,2.10
2019-06-27T16:36:57.524Z,2.40
2019-06-27T16:39:27.111Z,4.53
2019-06-27T16:41:56.545Z,3.63
2019-06-27T16:44:26.140Z,2.30
2019-06-27T16:46:55.849Z,4.00
2019-06-27T16:49:25.353Z,2.50
2019-06-27T16:51:55.006Z,3.17
2019-06-27T16:54:24.535Z,2.87
2019-06-27T16:56:54.959Z,3.80
2019-06-27T16:59:25.696Z,3.27
2019-06-27T17:01:55.286Z,3.07
2019-06-27T17:04:27.591Z,5.00
2019-06-27T17:06:57.155Z,3.80
2019-06-27T17:09:26.826Z,6.30
2019-06-27T17:11:56.582Z,3.83
2019-06-27T17:14:26.020Z,4.20
2019-06-27T17:16:55.592Z,4.30
2019-06-27T17:19:25.259Z,2.77
2019-06-27T17:21:59.210Z,2.60
2019-06-27T17:24:28.779Z,4.70
2019-06-27T17:26:58.490Z,2.77
2019-06-27T17:29:37.029Z,3.73
2019-06-27T17:32:06.699Z,3.40
2019-06-27T17:34:36.296Z,3.10
2019-06-27T17:37:05.664Z,3.10
2019-06-27T17:39:35.060Z,3.50
2019-06-27T17:42:05.756Z,5.10
2019-06-27T17:44:35.178Z,4.70
2019-06-27T17:47:04.592Z,2.50
2019-06-27T17:49:35.038Z,4.13
2019-06-27T17:52:04.510Z,6.83
2019-06-27T17:54:34.069Z,2.60
2019-06-27T17:57:03.540Z,3.00
2019-06-27T17:59:32.928Z,3.17
2019-06-27T18:02:02.447Z,6.23
2019-06-27T18:04:31.815Z,6.50
2019-06-27T18:07:13.711Z,2.80
2019-06-27T18:09:33.706Z,6.40
2019-06-27T18:12:03.171Z,2.80
2019-06-27T18:14:32.585Z,5.37
2019-06-27T18:17:02.146Z,3.37
2019-06-27T18:19:32.621Z,6.37
2019-06-27T18:22:02.184Z,3.67
2019-06-27T18:24:31.483Z,2.90
2019-06-27T18:27:02.117Z,4.53
2019-06-27T18:29:31.537Z,5.87
2019-06-27T18:32:00.990Z,3.13
2019-06-27T18:34:30.496Z,4.90
2019-06-27T18:37:00.009Z,3.37
2019-06-27T18:39:29.434Z,5.03
2019-06-27T18:41:59.068Z,4.97
2019-06-27T18:44:28.599Z,3.03
2019-06-27T18:46:58.195Z,2.90
2019-06-27T18:49:27.649Z,5.73
2019-06-27T18:51:57.442Z,3.73
2019-06-27T18:54:26.972Z,3.73
2019-06-27T18:56:58.959Z,4.13
2019-06-27T18:59:31.311Z,2.90
2019-06-27T19:02:00.862Z,5.27
2019-06-27T19:04:30.426Z,3.10
2019-06-27T19:06:59.850Z,3.97
2019-06-27T19:09:29.212Z,3.03
2019-06-27T19:11:58.660Z,4.03
2019-06-27T19:14:28.270Z,4.10
2019-06-27T19:16:58.801Z,5.00
2019-06-27T19:19:30.846Z,2.90
2019-06-27T19:22:22.175Z,8.63
2019-06-27T19:25:06.624Z,3.50
2019-06-27T19:27:37.116Z,7.73
2019-06-27T19:30:06.950Z,4.53
2019-06-27T19:32:36.488Z,4.53
2019-06-27T19:35:06.319Z,2.80
2019-06-27T19:37:35.836Z,4.70
2019-06-27T19:40:08.396Z,4.97
2019-06-27T19:42:37.827Z,3.70
2019-06-27T19:45:07.433Z,3.40
2019-06-27T19:47:37.119Z,7.13
2019-06-27T19:50:06.889Z,3.93
2019-06-27T19:52:36.512Z,9.97
2019-06-27T19:55:08.069Z,2.90
2019-06-27T19:57:39.065Z,8.07
2019-06-27T20:00:11.855Z,6.70
2019-06-27T20:02:41.983Z,4.97
2019-06-27T20:05:13.407Z,5.73
2019-06-27T20:07:42.793Z,4.83
2019-06-27T20:10:13.318Z,10.63
2019-06-27T20:12:49.664Z,3.73
2019-06-27T20:15:21.897Z,5.37
2019-06-27T20:17:51.317Z,3.30
2019-06-27T20:20:21.348Z,4.17
2019-06-27T20:22:50.892Z,16.83
2019-06-27T20:25:20.307Z,15.73
2019-06-27T20:27:49.989Z,5.00
2019-06-27T20:30:20.057Z,4.87
2019-06-27T20:32:51.692Z,3.30
2019-06-27T20:35:21.879Z,5.93
2019-06-27T20:37:51.681Z,3.23
2019-06-27T20:40:21.510Z,4.47
2019-06-27T20:42:50.983Z,4.97
2019-06-27T20:45:39.946Z,4.97
2019-06-27T20:48:09.439Z,7.27
2019-06-27T20:50:47.976Z,5.57
2019-06-27T20:53:17.335Z,8.00
2019-06-27T20:55:54.684Z,5.40
2019-06-27T20:58:25.278Z,2.87
2019-06-27T21:00:54.693Z,9.60
2019-06-27T21:03:24.098Z,4.53
2019-06-27T21:05:55.792Z,5.80
2019-06-27T21:08:25.496Z,5.20
2019-06-27T21:10:54.952Z,5.60
2019-06-27T21:13:35.890Z,5.10
2019-06-27T21:16:05.459Z,9.67
2019-06-27T21:18:34.934Z,3.13
2019-06-27T21:21:06.180Z,4.37
2019-06-27T21:23:36.096Z,4.20
2019-06-27T21:26:14.950Z,4.37
2019-06-27T21:28:44.414Z,3.13
2019-06-27T21:31:14.171Z,4.20
2019-06-27T21:37:57.757Z,3.87
2019-06-27T21:40:27.207Z,4.03
2019-06-27T21:42:56.783Z,3.83
2019-06-27T21:45:26.191Z,3.30
2019-06-27T21:47:55.543Z,3.00
2019-06-27T21:50:26.520Z,4.27
2019-06-27T21:52:55.973Z,5.00
2019-06-27T21:55:25.341Z,3.50
2019-06-27T21:57:54.628Z,3.37
2019-06-27T22:00:27.053Z,3.33
2019-06-27T22:02:56.685Z,4.57
2019-06-27T22:05:26.259Z,4.73
2019-06-27T22:07:55.788Z,4.40
2019-06-27T22:10:25.370Z,3.80
2019-06-27T22:12:54.706Z,3.60
2019-06-27T22:15:24.163Z,5.27
2019-06-27T22:17:53.930Z,4.60
2019-06-27T22:20:23.412Z,4.00
2019-06-27T22:22:52.769Z,3.60
2019-06-27T22:25:22.171Z,3.33
2019-06-27T22:27:51.655Z,7.40
2019-06-27T22:30:21.111Z,3.00
2019-06-27T22:32:50.569Z,3.43
2019-06-27T22:35:20.078Z,4.90
2019-06-27T22:38:07.342Z,4.00
2019-06-27T22:40:54.022Z,3.73
2019-06-27T22:43:40.781Z,4.03
2019-06-27T22:46:27.600Z,4.43
2019-06-27T22:48:58.792Z,3.67
2019-06-27T22:51:47.117Z,3.93
2019-06-27T22:54:17.060Z,3.60
2019-06-27T22:56:46.507Z,3.63
2019-06-27T22:59:15.912Z,3.70
2019-06-27T23:01:45.348Z,4.77
2019-06-27T23:04:14.752Z,4.80
2019-06-27T23:06:44.086Z,3.50
2019-06-27T23:09:13.474Z,4.27
2019-06-27T23:11:42.884Z,4.23
2019-06-27T23:14:12.312Z,4.10
2019-06-27T23:16:41.745Z,3.77
2019-06-27T23:19:11.781Z,4.40
2019-06-27T23:21:41.219Z,4.33
2019-06-27T23:24:10.527Z,3.80
2019-06-27T23:26:39.893Z,6.07
2019-06-27T23:29:09.470Z,7.10
2019-06-27T23:31:38.832Z,4.03
2019-06-27T23:34:08.155Z,4.30
2019-06-27T23:36:37.487Z,4.27
2019-06-27T23:39:07.122Z,4.33
2019-06-27T23:41:36.521Z,4.27
2019-06-27T23:44:05.880Z,5.03
2019-06-27T23:46:42.178Z,4.63
2019-06-27T23:49:11.864Z,4.53
2019-06-27T23:51:47.006Z,4.50
2019-06-27T23:54:18.720Z,4.47
2019-06-27T23:56:48.134Z,7.27
2019-06-27T23:59:17.590Z,5.03
